Castro Verd, Portugal
Current Conditions -  °F | °C
As of 2:00 AM on Monday 26 Jan 2015 (Local Time) from LPBJ Reporting Station
Clear Clear  
Wind Chill: 41°   Ceiling: Unl
Heat Index: 45°   Visibility: 6mi
Dew Point: 36°   Wind: 7mph
Humidity: 71%   Direction: 300°WNW
Pressure: 30.33"   Gusts: NA
Location:  37.7°N, 8.08°W
Report Text: LPBJ 260200Z 30006KT 270V330 CAVOK 07/02 Q1027
Loading
Personal Weather Stations






























Interactive Weather Map New forecast layout! Learn more

10-Day Weather Forecast

Advertisements
Track Severe Weather on mobile